sensor_id;sensor_type;location;lat;lon;timestamp;P1;durP1;ratioP1;P2;durP2;ratioP2
22648;SDS011;11491;41.942;24.220;2023-09-07T00:00:32;32.42;;;28.20;;
22648;SDS011;11491;41.942;24.220;2023-09-07T00:02:59;33.38;;;28.10;;
22648;SDS011;11491;41.942;24.220;2023-09-07T00:05:25;36.00;;;31.17;;
22648;SDS011;11491;41.942;24.220;2023-09-07T00:07:52;35.05;;;29.85;;
22648;SDS011;11491;41.942;24.220;2023-09-07T00:10:19;35.00;;;29.10;;
22648;SDS011;11491;41.942;24.220;2023-09-07T00:12:46;37.35;;;29.08;;
22648;SDS011;11491;41.942;24.220;2023-09-07T00:15:14;37.85;;;28.73;;
22648;SDS011;11491;41.942;24.220;2023-09-07T00:17:41;39.08;;;29.42;;
22648;SDS011;11491;41.942;24.220;2023-09-07T00:20:08;39.83;;;28.98;;
22648;SDS011;11491;41.942;24.220;2023-09-07T00:22:39;37.55;;;29.15;;
22648;SDS011;11491;41.942;24.220;2023-09-07T00:25:06;39.58;;;29.75;;
22648;SDS011;11491;41.942;24.220;2023-09-07T00:27:34;43.20;;;30.52;;
22648;SDS011;11491;41.942;24.220;2023-09-07T00:30:01;42.47;;;30.27;;
22648;SDS011;11491;41.942;24.220;2023-09-07T00:32:31;35.78;;;28.33;;
22648;SDS011;11491;41.942;24.220;2023-09-07T00:34:58;35.42;;;27.75;;
22648;SDS011;11491;41.942;24.220;2023-09-07T00:37:25;252.52;;;89.60;;
22648;SDS011;11491;41.942;24.220;2023-09-07T00:39:52;124.13;;;51.60;;
22648;SDS011;11491;41.942;24.220;2023-09-07T00:42:19;88.15;;;42.65;;
22648;SDS011;11491;41.942;24.220;2023-09-07T00:44:45;148.40;;;61.20;;
22648;SDS011;11491;41.942;24.220;2023-09-07T00:47:13;130.88;;;62.88;;
22648;SDS011;11491;41.942;24.220;2023-09-07T00:49:41;107.68;;;57.25;;
22648;SDS011;11491;41.942;24.220;2023-09-07T00:52:08;78.38;;;45.38;;
22648;SDS011;11491;41.942;24.220;2023-09-07T00:54:35;84.45;;;52.30;;
22648;SDS011;11491;41.942;24.220;2023-09-07T00:57:03;113.60;;;70.22;;
22648;SDS011;11491;41.942;24.220;2023-09-07T00:59:31;98.97;;;62.22;;
22648;SDS011;11491;41.942;24.220;2023-09-07T01:01:58;92.55;;;61.47;;
22648;SDS011;11491;41.942;24.220;2023-09-07T01:04:25;122.30;;;81.00;;
22648;SDS011;11491;41.942;24.220;2023-09-07T01:06:55;148.48;;;100.15;;
22648;SDS011;11491;41.942;24.220;2023-09-07T01:09:27;83.90;;;58.35;;
22648;SDS011;11491;41.942;24.220;2023-09-07T01:11:56;48.17;;;34.97;;
22648;SDS011;11491;41.942;24.220;2023-09-07T01:14:23;61.33;;;43.63;;
22648;SDS011;11491;41.942;24.220;2023-09-07T01:16:50;54.08;;;40.20;;
22648;SDS011;11491;41.942;24.220;2023-09-07T01:19:17;48.20;;;37.65;;
22648;SDS011;11491;41.942;24.220;2023-09-07T01:21:45;41.67;;;31.98;;
22648;SDS011;11491;41.942;24.220;2023-09-07T01:24:13;40.85;;;32.40;;
22648;SDS011;11491;41.942;24.220;2023-09-07T01:26:41;44.42;;;29.67;;
22648;SDS011;11491;41.942;24.220;2023-09-07T01:29:08;27.50;;;23.05;;
22648;SDS011;11491;41.942;24.220;2023-09-07T01:34:10;32.33;;;23.83;;
22648;SDS011;11491;41.942;24.220;2023-09-07T01:36:37;26.38;;;23.20;;
22648;SDS011;11491;41.942;24.220;2023-09-07T01:39:06;29.33;;;23.10;;
22648;SDS011;11491;41.942;24.220;2023-09-07T01:41:33;29.77;;;24.05;;
22648;SDS011;11491;41.942;24.220;2023-09-07T01:44:00;26.27;;;20.85;;
22648;SDS011;11491;41.942;24.220;2023-09-07T01:46:27;28.25;;;21.58;;
22648;SDS011;11491;41.942;24.220;2023-09-07T01:48:54;25.38;;;21.05;;
22648;SDS011;11491;41.942;24.220;2023-09-07T01:51:20;27.58;;;21.95;;
22648;SDS011;11491;41.942;24.220;2023-09-07T01:53:47;27.67;;;22.05;;
22648;SDS011;11491;41.942;24.220;2023-09-07T01:56:18;29.58;;;21.98;;
22648;SDS011;11491;41.942;24.220;2023-09-07T01:58:45;23.67;;;20.85;;
22648;SDS011;11491;41.942;24.220;2023-09-07T02:01:22;24.17;;;20.20;;
22648;SDS011;11491;41.942;24.220;2023-09-07T02:03:50;26.35;;;21.55;;
22648;SDS011;11491;41.942;24.220;2023-09-07T02:06:17;24.00;;;21.45;;
22648;SDS011;11491;41.942;24.220;2023-09-07T02:16:38;34.80;;;23.58;;
22648;SDS011;11491;41.942;24.220;2023-09-07T02:19:05;28.02;;;23.90;;
22648;SDS011;11491;41.942;24.220;2023-09-07T02:21:32;28.02;;;22.58;;
22648;SDS011;11491;41.942;24.220;2023-09-07T02:23:59;29.67;;;22.23;;
22648;SDS011;11491;41.942;24.220;2023-09-07T02:26:26;25.13;;;21.67;;
22648;SDS011;11491;41.942;24.220;2023-09-07T02:28:53;26.83;;;20.52;;
22648;SDS011;11491;41.942;24.220;2023-09-07T02:31:21;26.58;;;20.50;;
22648;SDS011;11491;41.942;24.220;2023-09-07T02:33:54;28.85;;;20.98;;
22648;SDS011;11491;41.942;24.220;2023-09-07T02:42:10;25.73;;;21.20;;
22648;SDS011;11491;41.942;24.220;2023-09-07T02:44:37;24.05;;;18.88;;
22648;SDS011;11491;41.942;24.220;2023-09-07T02:47:39;24.23;;;20.77;;
22648;SDS011;11491;41.942;24.220;2023-09-07T02:50:13;26.30;;;21.27;;
22648;SDS011;11491;41.942;24.220;2023-09-07T02:53:01;30.58;;;21.95;;
22648;SDS011;11491;41.942;24.220;2023-09-07T03:04:24;24.92;;;19.20;;
22648;SDS011;11491;41.942;24.220;2023-09-07T03:06:53;25.48;;;18.58;;
22648;SDS011;11491;41.942;24.220;2023-09-07T03:09:19;24.70;;;18.58;;
22648;SDS011;11491;41.942;24.220;2023-09-07T03:11:46;21.42;;;18.20;;
22648;SDS011;11491;41.942;24.220;2023-09-07T03:14:13;22.55;;;18.50;;
22648;SDS011;11491;41.942;24.220;2023-09-07T03:16:40;18.33;;;16.33;;
22648;SDS011;11491;41.942;24.220;2023-09-07T03:19:07;23.05;;;16.50;;
22648;SDS011;11491;41.942;24.220;2023-09-07T03:21:34;21.60;;;17.10;;
22648;SDS011;11491;41.942;24.220;2023-09-07T03:24:02;23.83;;;17.52;;
22648;SDS011;11491;41.942;24.220;2023-09-07T03:26:29;21.75;;;16.83;;
22648;SDS011;11491;41.942;24.220;2023-09-07T03:28:56;19.63;;;16.33;;
22648;SDS011;11491;41.942;24.220;2023-09-07T03:31:23;23.65;;;16.67;;
22648;SDS011;11491;41.942;24.220;2023-09-07T03:33:50;24.35;;;17.05;;
22648;SDS011;11491;41.942;24.220;2023-09-07T03:36:17;20.08;;;16.63;;
22648;SDS011;11491;41.942;24.220;2023-09-07T03:38:54;20.13;;;16.85;;
22648;SDS011;11491;41.942;24.220;2023-09-07T03:41:24;20.70;;;16.15;;
22648;SDS011;11491;41.942;24.220;2023-09-07T03:43:55;23.88;;;17.55;;
22648;SDS011;11491;41.942;24.220;2023-09-07T03:46:22;21.98;;;17.33;;
22648;SDS011;11491;41.942;24.220;2023-09-07T03:48:49;18.40;;;16.38;;
22648;SDS011;11491;41.942;24.220;2023-09-07T03:51:16;25.38;;;16.65;;
22648;SDS011;11491;41.942;24.220;2023-09-07T03:53:43;25.35;;;16.00;;
22648;SDS011;11491;41.942;24.220;2023-09-07T03:56:10;19.73;;;15.10;;
22648;SDS011;11491;41.942;24.220;2023-09-07T03:58:39;18.65;;;15.65;;
22648;SDS011;11491;41.942;24.220;2023-09-07T04:01:06;22.35;;;16.17;;
22648;SDS011;11491;41.942;24.220;2023-09-07T04:03:34;20.35;;;15.55;;
22648;SDS011;11491;41.942;24.220;2023-09-07T04:06:01;22.08;;;16.15;;
22648;SDS011;11491;41.942;24.220;2023-09-07T04:08:27;19.20;;;16.13;;
22648;SDS011;11491;41.942;24.220;2023-09-07T04:10:54;19.25;;;15.18;;
22648;SDS011;11491;41.942;24.220;2023-09-07T04:13:21;23.33;;;16.10;;
22648;SDS011;11491;41.942;24.220;2023-09-07T04:15:49;24.88;;;16.25;;
22648;SDS011;11491;41.942;24.220;2023-09-07T04:18:16;23.38;;;16.13;;
22648;SDS011;11491;41.942;24.220;2023-09-07T04:20:43;25.30;;;17.85;;
22648;SDS011;11491;41.942;24.220;2023-09-07T04:23:10;18.77;;;15.93;;
22648;SDS011;11491;41.942;24.220;2023-09-07T04:25:37;21.25;;;17.27;;
22648;SDS011;11491;41.942;24.220;2023-09-07T04:28:05;23.52;;;18.23;;
22648;SDS011;11491;41.942;24.220;2023-09-07T04:30:32;19.38;;;16.90;;
22648;SDS011;11491;41.942;24.220;2023-09-07T04:33:00;20.90;;;14.07;;
22648;SDS011;11491;41.942;24.220;2023-09-07T04:35:28;18.98;;;15.30;;
22648;SDS011;11491;41.942;24.220;2023-09-07T04:38:03;19.75;;;14.90;;
22648;SDS011;11491;41.942;24.220;2023-09-07T04:40:30;19.30;;;13.98;;
22648;SDS011;11491;41.942;24.220;2023-09-07T04:42:56;17.80;;;13.10;;
22648;SDS011;11491;41.942;24.220;2023-09-07T04:45:24;15.82;;;14.15;;
22648;SDS011;11491;41.942;24.220;2023-09-07T04:47:51;20.77;;;14.57;;
22648;SDS011;11491;41.942;24.220;2023-09-07T04:50:19;18.63;;;15.48;;
22648;SDS011;11491;41.942;24.220;2023-09-07T04:52:45;25.90;;;17.02;;
22648;SDS011;11491;41.942;24.220;2023-09-07T04:55:13;19.80;;;16.85;;
22648;SDS011;11491;41.942;24.220;2023-09-07T04:57:40;22.08;;;18.00;;
22648;SDS011;11491;41.942;24.220;2023-09-07T05:00:07;24.05;;;17.75;;
22648;SDS011;11491;41.942;24.220;2023-09-07T05:02:34;38.13;;;26.00;;
22648;SDS011;11491;41.942;24.220;2023-09-07T05:05:05;24.48;;;19.77;;
22648;SDS011;11491;41.942;24.220;2023-09-07T05:07:34;31.60;;;23.52;;
22648;SDS011;11491;41.942;24.220;2023-09-07T05:10:00;27.33;;;23.23;;
22648;SDS011;11491;41.942;24.220;2023-09-07T05:12:28;25.98;;;21.80;;
22648;SDS011;11491;41.942;24.220;2023-09-07T05:14:54;22.48;;;19.20;;
22648;SDS011;11491;41.942;24.220;2023-09-07T05:17:21;21.80;;;17.73;;
22648;SDS011;11491;41.942;24.220;2023-09-07T05:19:48;18.80;;;16.80;;
22648;SDS011;11491;41.942;24.220;2023-09-07T05:22:14;21.38;;;16.92;;
22648;SDS011;11491;41.942;24.220;2023-09-07T05:24:43;17.80;;;15.32;;
22648;SDS011;11491;41.942;24.220;2023-09-07T05:27:12;16.48;;;13.90;;
22648;SDS011;11491;41.942;24.220;2023-09-07T05:29:39;16.50;;;14.70;;
22648;SDS011;11491;41.942;24.220;2023-09-07T05:32:05;19.10;;;15.82;;
22648;SDS011;11491;41.942;24.220;2023-09-07T05:34:34;20.27;;;16.70;;
22648;SDS011;11491;41.942;24.220;2023-09-07T05:37:01;24.50;;;20.25;;
22648;SDS011;11491;41.942;24.220;2023-09-07T05:39:27;23.52;;;19.25;;
22648;SDS011;11491;41.942;24.220;2023-09-07T05:41:55;19.95;;;17.75;;
22648;SDS011;11491;41.942;24.220;2023-09-07T05:44:22;31.45;;;25.90;;
22648;SDS011;11491;41.942;24.220;2023-09-07T05:46:49;33.03;;;27.80;;
22648;SDS011;11491;41.942;24.220;2023-09-07T05:49:15;28.23;;;22.92;;
22648;SDS011;11491;41.942;24.220;2023-09-07T05:51:42;23.92;;;19.80;;
22648;SDS011;11491;41.942;24.220;2023-09-07T05:54:09;25.08;;;20.52;;
22648;SDS011;11491;41.942;24.220;2023-09-07T05:56:36;24.52;;;20.20;;
22648;SDS011;11491;41.942;24.220;2023-09-07T05:59:04;24.85;;;20.02;;
22648;SDS011;11491;41.942;24.220;2023-09-07T06:01:30;25.52;;;21.92;;
22648;SDS011;11491;41.942;24.220;2023-09-07T06:03:57;25.92;;;21.50;;
22648;SDS011;11491;41.942;24.220;2023-09-07T06:06:25;25.80;;;21.40;;
22648;SDS011;11491;41.942;24.220;2023-09-07T06:08:51;29.40;;;21.67;;
22648;SDS011;11491;41.942;24.220;2023-09-07T06:11:18;25.45;;;20.08;;
22648;SDS011;11491;41.942;24.220;2023-09-07T06:13:45;22.52;;;18.85;;
22648;SDS011;11491;41.942;24.220;2023-09-07T06:16:13;32.60;;;20.40;;
22648;SDS011;11491;41.942;24.220;2023-09-07T06:18:40;24.63;;;21.48;;
22648;SDS011;11491;41.942;24.220;2023-09-07T06:21:06;26.95;;;20.77;;
22648;SDS011;11491;41.942;24.220;2023-09-07T06:23:33;27.38;;;20.23;;
22648;SDS011;11491;41.942;24.220;2023-09-07T06:26:00;27.10;;;21.58;;
22648;SDS011;11491;41.942;24.220;2023-09-07T06:28:28;31.52;;;22.25;;
22648;SDS011;11491;41.942;24.220;2023-09-07T06:30:54;23.85;;;19.95;;
22648;SDS011;11491;41.942;24.220;2023-09-07T06:33:22;17.67;;;15.80;;
22648;SDS011;11491;41.942;24.220;2023-09-07T06:35:49;20.35;;;18.17;;
22648;SDS011;11491;41.942;24.220;2023-09-07T06:38:16;20.73;;;16.25;;
22648;SDS011;11491;41.942;24.220;2023-09-07T06:40:47;21.50;;;16.63;;
22648;SDS011;11491;41.942;24.220;2023-09-07T06:43:14;22.55;;;17.63;;
22648;SDS011;11491;41.942;24.220;2023-09-07T06:45:40;18.92;;;14.55;;
22648;SDS011;11491;41.942;24.220;2023-09-07T06:48:07;15.25;;;12.95;;
22648;SDS011;11491;41.942;24.220;2023-09-07T06:50:35;16.77;;;13.15;;
22648;SDS011;11491;41.942;24.220;2023-09-07T06:53:02;17.85;;;12.60;;
22648;SDS011;11491;41.942;24.220;2023-09-07T06:55:29;19.15;;;13.80;;
22648;SDS011;11491;41.942;24.220;2023-09-07T06:57:56;16.70;;;13.02;;
22648;SDS011;11491;41.942;24.220;2023-09-07T07:00:23;18.80;;;11.02;;
22648;SDS011;11491;41.942;24.220;2023-09-07T07:02:49;12.27;;;10.23;;
22648;SDS011;11491;41.942;24.220;2023-09-07T07:05:16;15.43;;;10.90;;
22648;SDS011;11491;41.942;24.220;2023-09-07T07:07:44;14.65;;;10.10;;
22648;SDS011;11491;41.942;24.220;2023-09-07T07:10:11;12.30;;;9.90;;
22648;SDS011;11491;41.942;24.220;2023-09-07T07:12:37;14.55;;;10.65;;
22648;SDS011;11491;41.942;24.220;2023-09-07T07:15:05;13.43;;;10.43;;
22648;SDS011;11491;41.942;24.220;2023-09-07T07:17:32;14.32;;;10.38;;
22648;SDS011;11491;41.942;24.220;2023-09-07T07:19:59;14.70;;;10.57;;
22648;SDS011;11491;41.942;24.220;2023-09-07T07:22:26;11.07;;;9.05;;
22648;SDS011;11491;41.942;24.220;2023-09-07T07:24:54;14.13;;;10.38;;
22648;SDS011;11491;41.942;24.220;2023-09-07T07:27:20;13.32;;;9.23;;
22648;SDS011;11491;41.942;24.220;2023-09-07T07:29:47;10.85;;;8.95;;
22648;SDS011;11491;41.942;24.220;2023-09-07T07:32:14;11.48;;;8.05;;
22648;SDS011;11491;41.942;24.220;2023-09-07T07:34:41;11.80;;;9.55;;
22648;SDS011;11491;41.942;24.220;2023-09-07T07:37:08;11.48;;;8.75;;
22648;SDS011;11491;41.942;24.220;2023-09-07T07:39:34;13.60;;;9.02;;
22648;SDS011;11491;41.942;24.220;2023-09-07T07:42:03;10.52;;;8.85;;
22648;SDS011;11491;41.942;24.220;2023-09-07T07:44:31;11.82;;;9.45;;
22648;SDS011;11491;41.942;24.220;2023-09-07T07:46:58;12.90;;;10.57;;
22648;SDS011;11491;41.942;24.220;2023-09-07T07:49:24;11.18;;;9.50;;
22648;SDS011;11491;41.942;24.220;2023-09-07T07:51:52;14.98;;;9.38;;
22648;SDS011;11491;41.942;24.220;2023-09-07T07:54:20;12.50;;;9.20;;
22648;SDS011;11491;41.942;24.220;2023-09-07T07:56:48;11.80;;;9.68;;
22648;SDS011;11491;41.942;24.220;2023-09-07T07:59:16;15.63;;;9.35;;
22648;SDS011;11491;41.942;24.220;2023-09-07T08:01:42;10.63;;;9.05;;
22648;SDS011;11491;41.942;24.220;2023-09-07T08:04:09;10.93;;;8.70;;
22648;SDS011;11491;41.942;24.220;2023-09-07T08:06:36;13.32;;;8.82;;
22648;SDS011;11491;41.942;24.220;2023-09-07T08:09:03;11.75;;;8.90;;
22648;SDS011;11491;41.942;24.220;2023-09-07T08:11:30;10.70;;;8.80;;
22648;SDS011;11491;41.942;24.220;2023-09-07T08:13:57;12.43;;;7.97;;
22648;SDS011;11491;41.942;24.220;2023-09-07T08:16:25;13.70;;;9.75;;
22648;SDS011;11491;41.942;24.220;2023-09-07T08:18:52;14.52;;;10.23;;
22648;SDS011;11491;41.942;24.220;2023-09-07T08:21:18;12.05;;;9.63;;
22648;SDS011;11491;41.942;24.220;2023-09-07T08:23:45;14.20;;;9.45;;
22648;SDS011;11491;41.942;24.220;2023-09-07T08:26:12;12.25;;;9.10;;
22648;SDS011;11491;41.942;24.220;2023-09-07T08:28:40;14.23;;;9.88;;
22648;SDS011;11491;41.942;24.220;2023-09-07T08:31:06;16.35;;;9.90;;
22648;SDS011;11491;41.942;24.220;2023-09-07T08:33:34;14.52;;;9.30;;
22648;SDS011;11491;41.942;24.220;2023-09-07T08:36:05;13.80;;;9.43;;
22648;SDS011;11491;41.942;24.220;2023-09-07T08:38:33;13.55;;;9.35;;
22648;SDS011;11491;41.942;24.220;2023-09-07T08:41:01;13.50;;;8.82;;
22648;SDS011;11491;41.942;24.220;2023-09-07T08:43:30;13.95;;;9.63;;
22648;SDS011;11491;41.942;24.220;2023-09-07T08:46:03;10.98;;;8.07;;
22648;SDS011;11491;41.942;24.220;2023-09-07T08:48:38;13.60;;;8.98;;
22648;SDS011;11491;41.942;24.220;2023-09-07T08:51:05;15.18;;;8.02;;
22648;SDS011;11491;41.942;24.220;2023-09-07T08:53:33;11.52;;;8.73;;
22648;SDS011;11491;41.942;24.220;2023-09-07T08:56:03;11.18;;;8.65;;
22648;SDS011;11491;41.942;24.220;2023-09-07T08:58:30;14.40;;;8.63;;
22648;SDS011;11491;41.942;24.220;2023-09-07T09:00:57;12.40;;;8.02;;
22648;SDS011;11491;41.942;24.220;2023-09-07T09:03:24;8.85;;;7.85;;
22648;SDS011;11491;41.942;24.220;2023-09-07T09:05:54;11.52;;;8.73;;
22648;SDS011;11491;41.942;24.220;2023-09-07T09:08:22;14.25;;;8.55;;
22648;SDS011;11491;41.942;24.220;2023-09-07T09:10:49;13.80;;;9.25;;
22648;SDS011;11491;41.942;24.220;2023-09-07T09:13:28;15.55;;;9.70;;
22648;SDS011;11491;41.942;24.220;2023-09-07T09:15:58;13.10;;;8.30;;
22648;SDS011;11491;41.942;24.220;2023-09-07T09:18:25;12.20;;;8.25;;
22648;SDS011;11491;41.942;24.220;2023-09-07T09:20:53;12.75;;;9.55;;
22648;SDS011;11491;41.942;24.220;2023-09-07T09:23:20;11.40;;;8.68;;
22648;SDS011;11491;41.942;24.220;2023-09-07T09:25:47;13.77;;;9.10;;
22648;SDS011;11491;41.942;24.220;2023-09-07T09:28:14;11.85;;;8.40;;
22648;SDS011;11491;41.942;24.220;2023-09-07T09:30:41;12.98;;;8.65;;
22648;SDS011;11491;41.942;24.220;2023-09-07T09:33:09;11.27;;;8.52;;
22648;SDS011;11491;41.942;24.220;2023-09-07T09:35:36;13.05;;;8.82;;
22648;SDS011;11491;41.942;24.220;2023-09-07T09:38:05;11.82;;;9.15;;
22648;SDS011;11491;41.942;24.220;2023-09-07T09:40:32;13.23;;;9.70;;
22648;SDS011;11491;41.942;24.220;2023-09-07T09:43:01;13.93;;;9.15;;
22648;SDS011;11491;41.942;24.220;2023-09-07T09:45:28;13.57;;;9.60;;
22648;SDS011;11491;41.942;24.220;2023-09-07T09:47:55;12.93;;;9.25;;
22648;SDS011;11491;41.942;24.220;2023-09-07T09:50:22;12.23;;;9.43;;
22648;SDS011;11491;41.942;24.220;2023-09-07T09:52:49;17.23;;;9.30;;
22648;SDS011;11491;41.942;24.220;2023-09-07T09:55:19;10.13;;;8.98;;
22648;SDS011;11491;41.942;24.220;2023-09-07T09:57:48;16.20;;;11.02;;
22648;SDS011;11491;41.942;24.220;2023-09-07T10:00:15;16.75;;;10.63;;
22648;SDS011;11491;41.942;24.220;2023-09-07T10:02:51;13.07;;;9.82;;
22648;SDS011;11491;41.942;24.220;2023-09-07T10:05:24;11.90;;;9.38;;
22648;SDS011;11491;41.942;24.220;2023-09-07T10:07:51;15.95;;;10.35;;
22648;SDS011;11491;41.942;24.220;2023-09-07T10:10:20;14.20;;;9.55;;
22648;SDS011;11491;41.942;24.220;2023-09-07T10:12:51;14.10;;;9.57;;
22648;SDS011;11491;41.942;24.220;2023-09-07T10:15:20;11.02;;;9.20;;
22648;SDS011;11491;41.942;24.220;2023-09-07T10:17:49;23.75;;;8.90;;
22648;SDS011;11491;41.942;24.220;2023-09-07T10:20:18;12.10;;;8.02;;
22648;SDS011;11491;41.942;24.220;2023-09-07T10:22:47;9.90;;;7.80;;
22648;SDS011;11491;41.942;24.220;2023-09-07T10:25:19;14.45;;;8.20;;
22648;SDS011;11491;41.942;24.220;2023-09-07T10:27:47;9.80;;;8.80;;
22648;SDS011;11491;41.942;24.220;2023-09-07T10:30:14;11.77;;;10.00;;
22648;SDS011;11491;41.942;24.220;2023-09-07T10:32:44;11.43;;;9.10;;
22648;SDS011;11491;41.942;24.220;2023-09-07T10:35:13;12.13;;;8.80;;
22648;SDS011;11491;41.942;24.220;2023-09-07T10:37:41;10.40;;;8.82;;
22648;SDS011;11491;41.942;24.220;2023-09-07T10:40:10;9.20;;;8.27;;
22648;SDS011;11491;41.942;24.220;2023-09-07T10:42:39;13.93;;;9.23;;
22648;SDS011;11491;41.942;24.220;2023-09-07T10:45:10;9.15;;;8.25;;
22648;SDS011;11491;41.942;24.220;2023-09-07T10:47:41;12.20;;;9.65;;
22648;SDS011;11491;41.942;24.220;2023-09-07T10:50:10;10.10;;;8.68;;
22648;SDS011;11491;41.942;24.220;2023-09-07T10:52:38;12.60;;;8.93;;
22648;SDS011;11491;41.942;24.220;2023-09-07T10:55:06;12.07;;;7.93;;
22648;SDS011;11491;41.942;24.220;2023-09-07T10:57:42;10.30;;;8.32;;
22648;SDS011;11491;41.942;24.220;2023-09-07T11:00:10;11.52;;;8.60;;
22648;SDS011;11491;41.942;24.220;2023-09-07T11:02:39;11.50;;;8.38;;
22648;SDS011;11491;41.942;24.220;2023-09-07T11:05:06;11.60;;;7.90;;
22648;SDS011;11491;41.942;24.220;2023-09-07T11:07:35;10.80;;;8.55;;
22648;SDS011;11491;41.942;24.220;2023-09-07T11:10:05;12.88;;;9.10;;
22648;SDS011;11491;41.942;24.220;2023-09-07T11:12:36;11.32;;;8.32;;
22648;SDS011;11491;41.942;24.220;2023-09-07T11:15:05;10.55;;;7.70;;
22648;SDS011;11491;41.942;24.220;2023-09-07T11:17:36;10.02;;;8.38;;
22648;SDS011;11491;41.942;24.220;2023-09-07T11:20:03;9.45;;;7.88;;
22648;SDS011;11491;41.942;24.220;2023-09-07T11:22:32;10.82;;;7.20;;
22648;SDS011;11491;41.942;24.220;2023-09-07T11:24:59;8.90;;;7.43;;
22648;SDS011;11491;41.942;24.220;2023-09-07T11:27:30;14.68;;;8.50;;
22648;SDS011;11491;41.942;24.220;2023-09-07T11:29:57;11.23;;;8.73;;
22648;SDS011;11491;41.942;24.220;2023-09-07T11:32:32;9.32;;;7.68;;
22648;SDS011;11491;41.942;24.220;2023-09-07T11:35:00;11.63;;;7.95;;
22648;SDS011;11491;41.942;24.220;2023-09-07T11:37:27;9.30;;;8.15;;
22648;SDS011;11491;41.942;24.220;2023-09-07T11:39:53;12.02;;;8.25;;
22648;SDS011;11491;41.942;24.220;2023-09-07T11:42:20;12.65;;;8.88;;
22648;SDS011;11491;41.942;24.220;2023-09-07T11:44:47;12.48;;;8.48;;
22648;SDS011;11491;41.942;24.220;2023-09-07T11:47:14;11.88;;;8.50;;
22648;SDS011;11491;41.942;24.220;2023-09-07T11:49:42;10.85;;;8.80;;
22648;SDS011;11491;41.942;24.220;2023-09-07T11:52:09;14.43;;;9.60;;
22648;SDS011;11491;41.942;24.220;2023-09-07T11:54:36;11.43;;;8.00;;
22648;SDS011;11491;41.942;24.220;2023-09-07T11:57:03;11.80;;;9.90;;
22648;SDS011;11491;41.942;24.220;2023-09-07T11:59:30;15.80;;;11.23;;
22648;SDS011;11491;41.942;24.220;2023-09-07T12:01:57;14.10;;;11.60;;
22648;SDS011;11491;41.942;24.220;2023-09-07T12:04:24;15.90;;;11.95;;
22648;SDS011;11491;41.942;24.220;2023-09-07T12:06:52;11.25;;;8.77;;
22648;SDS011;11491;41.942;24.220;2023-09-07T12:09:19;9.25;;;8.07;;
22648;SDS011;11491;41.942;24.220;2023-09-07T12:11:46;19.95;;;9.32;;
22648;SDS011;11491;41.942;24.220;2023-09-07T12:14:13;11.63;;;8.82;;
22648;SDS011;11491;41.942;24.220;2023-09-07T12:16:39;11.88;;;8.30;;
22648;SDS011;11491;41.942;24.220;2023-09-07T12:19:06;9.00;;;8.10;;
22648;SDS011;11491;41.942;24.220;2023-09-07T12:21:34;13.15;;;10.43;;
22648;SDS011;11491;41.942;24.220;2023-09-07T12:24:02;13.25;;;9.02;;
22648;SDS011;11491;41.942;24.220;2023-09-07T12:26:29;13.32;;;10.68;;
22648;SDS011;11491;41.942;24.220;2023-09-07T12:28:55;8.80;;;7.60;;
22648;SDS011;11491;41.942;24.220;2023-09-07T12:31:23;9.88;;;8.63;;
22648;SDS011;11491;41.942;24.220;2023-09-07T12:33:49;10.27;;;8.85;;
22648;SDS011;11491;41.942;24.220;2023-09-07T12:36:16;28.70;;;21.60;;
22648;SDS011;11491;41.942;24.220;2023-09-07T12:38:46;17.80;;;13.25;;
22648;SDS011;11491;41.942;24.220;2023-09-07T12:41:14;10.52;;;7.90;;
22648;SDS011;11491;41.942;24.220;2023-09-07T12:43:41;12.95;;;8.05;;
22648;SDS011;11491;41.942;24.220;2023-09-07T12:46:08;13.38;;;9.15;;
22648;SDS011;11491;41.942;24.220;2023-09-07T12:48:35;11.20;;;10.10;;
22648;SDS011;11491;41.942;24.220;2023-09-07T12:51:02;12.02;;;8.25;;
22648;SDS011;11491;41.942;24.220;2023-09-07T12:53:29;12.30;;;9.82;;
22648;SDS011;11491;41.942;24.220;2023-09-07T12:55:55;11.63;;;8.63;;
22648;SDS011;11491;41.942;24.220;2023-09-07T12:58:24;16.30;;;9.07;;
22648;SDS011;11491;41.942;24.220;2023-09-07T13:00:50;16.58;;;9.43;;
22648;SDS011;11491;41.942;24.220;2023-09-07T13:03:17;11.85;;;9.32;;
22648;SDS011;11491;41.942;24.220;2023-09-07T13:05:44;11.38;;;8.45;;
22648;SDS011;11491;41.942;24.220;2023-09-07T13:08:11;13.88;;;8.85;;
22648;SDS011;11491;41.942;24.220;2023-09-07T13:10:37;10.50;;;8.27;;
22648;SDS011;11491;41.942;24.220;2023-09-07T13:13:05;14.65;;;8.35;;
22648;SDS011;11491;41.942;24.220;2023-09-07T13:15:33;11.88;;;7.82;;
22648;SDS011;11491;41.942;24.220;2023-09-07T13:18:00;11.60;;;7.93;;
22648;SDS011;11491;41.942;24.220;2023-09-07T13:20:27;10.15;;;7.60;;
22648;SDS011;11491;41.942;24.220;2023-09-07T13:22:53;11.50;;;7.75;;
22648;SDS011;11491;41.942;24.220;2023-09-07T13:25:20;9.68;;;7.47;;
22648;SDS011;11491;41.942;24.220;2023-09-07T13:27:47;11.90;;;8.02;;
22648;SDS011;11491;41.942;24.220;2023-09-07T13:30:14;10.20;;;7.97;;
22648;SDS011;11491;41.942;24.220;2023-09-07T13:32:42;11.73;;;7.95;;
22648;SDS011;11491;41.942;24.220;2023-09-07T13:35:11;8.82;;;7.28;;
22648;SDS011;11491;41.942;24.220;2023-09-07T13:37:38;11.90;;;7.57;;
22648;SDS011;11491;41.942;24.220;2023-09-07T13:40:06;10.70;;;8.00;;
22648;SDS011;11491;41.942;24.220;2023-09-07T13:42:33;13.15;;;9.10;;
22648;SDS011;11491;41.942;24.220;2023-09-07T13:45:00;11.27;;;9.20;;
22648;SDS011;11491;41.942;24.220;2023-09-07T13:47:27;12.93;;;9.88;;
22648;SDS011;11491;41.942;24.220;2023-09-07T13:49:55;12.68;;;10.32;;
22648;SDS011;11491;41.942;24.220;2023-09-07T13:52:22;11.55;;;8.15;;
22648;SDS011;11491;41.942;24.220;2023-09-07T13:54:49;11.20;;;7.78;;
22648;SDS011;11491;41.942;24.220;2023-09-07T13:57:15;168.38;;;132.20;;
22648;SDS011;11491;41.942;24.220;2023-09-07T13:59:42;13.75;;;11.15;;
22648;SDS011;11491;41.942;24.220;2023-09-07T14:02:09;19.20;;;17.30;;
22648;SDS011;11491;41.942;24.220;2023-09-07T14:04:35;44.90;;;40.55;;
22648;SDS011;11491;41.942;24.220;2023-09-07T14:07:03;13.27;;;8.80;;
22648;SDS011;11491;41.942;24.220;2023-09-07T14:09:30;13.85;;;10.07;;
22648;SDS011;11491;41.942;24.220;2023-09-07T14:11:58;10.63;;;8.70;;
22648;SDS011;11491;41.942;24.220;2023-09-07T14:14:25;10.10;;;8.40;;
22648;SDS011;11491;41.942;24.220;2023-09-07T14:16:52;9.85;;;8.85;;
22648;SDS011;11491;41.942;24.220;2023-09-07T14:19:21;12.20;;;8.65;;
22648;SDS011;11491;41.942;24.220;2023-09-07T14:21:48;28.50;;;22.83;;
22648;SDS011;11491;41.942;24.220;2023-09-07T14:24:16;60.60;;;39.13;;
22648;SDS011;11491;41.942;24.220;2023-09-07T14:26:43;76.95;;;51.25;;
22648;SDS011;11491;41.942;24.220;2023-09-07T14:29:10;57.25;;;39.60;;
22648;SDS011;11491;41.942;24.220;2023-09-07T14:31:36;33.42;;;21.40;;
22648;SDS011;11491;41.942;24.220;2023-09-07T14:34:03;14.27;;;11.40;;
22648;SDS011;11491;41.942;24.220;2023-09-07T14:36:30;16.55;;;11.65;;
22648;SDS011;11491;41.942;24.220;2023-09-07T14:38:57;12.15;;;9.30;;
22648;SDS011;11491;41.942;24.220;2023-09-07T14:41:25;8.88;;;7.97;;